St Solene — FVDG — position and weather

sailwx.info

Track history (hours):
 
Tides and Currents Weather Stations Pressure Air Temp Water Temp Dewpoint Dewpoint Depression Visibility Wind Speed Wind Dir Waves Ship Positions

St Solene

Last reported at 2016-Dec-05 18:18 UTC. Time now 2016-Dec-05 20:40 UTC.
Position N 43°01' E 003°48'.

Length 104 m; draft 6.5 m.

Type: Tanker. MMSI: 226302000.

Date/timePositionNaut miles runAvg speedWind from/ knotsBaromVisibWave heightAir tempDewpointWater temp
2016-Dec-05 18:18N 43°01' E 003°48'19 0.6
2016-Dec-04 08:25N 43°04' E 004°13'2211.2
2016-Dec-04 06:26N 43°06' E 004°43'16 7.9
2016-Dec-04 04:26N 43°17' E 004°59'7 7.2
2016-Dec-04 03:32N 43°24' E 004°60'0 0.0
2016-Dec-04 02:32N 43°24' E 004°60'0 0.0
2016-Dec-04 01:32N 43°24' E 004°60'0 0.0
2016-Dec-04 00:28N 43°24' E 004°60'0 0.0
2016-Dec-03 23:31N 43°24' E 004°60'0 0.0
2016-Dec-03 22:28N 43°24' E 004°60'0 0.0
2016-Dec-03 21:32N 43°24' E 004°60'0 0.0
2016-Dec-03 20:32N 43°24' E 004°60'0 0.0
2016-Dec-03 19:31N 43°24' E 004°60'0 0.0
2016-Dec-03 18:32N 43°24' E 004°60'0 0.0
2016-Dec-03 17:32N 43°24' E 004°60'0 0.0
2016-Dec-03 16:32N 43°24' E 004°60'0 0.0
2016-Dec-03 15:32N 43°24' E 004°60'0 0.0
2016-Dec-03 14:32N 43°24' E 004°60'0 0.0
2016-Dec-03 13:32N 43°24' E 004°60'0 0.0
2016-Dec-03 12:32N 43°24' E 004°60'0 0.0
2016-Dec-03 11:32N 43°24' E 004°60'0 0.0
2016-Dec-03 10:32N 43°24' E 004°60'0 0.0
2016-Dec-03 09:32N 43°24' E 004°60'0 0.0
2016-Dec-03 08:33N 43°24' E 004°60'0 0.0
2016-Dec-03 07:33N 43°24' E 004°60'0 0.0
2016-Dec-03 06:33N 43°24' E 004°60'0 0.0
2016-Dec-03 05:30N 43°24' E 004°60'0 0.0
2016-Dec-03 04:33N 43°24' E 004°60'0 0.0
2016-Dec-03 03:33N 43°24' E 004°60'0 0.0
2016-Dec-03 02:33N 43°24' E 004°60'0 0.0
2016-Dec-03 01:33N 43°24' E 004°60'0 0.0
2016-Dec-03 00:33N 43°24' E 004°60'0 0.0
2016-Dec-02 23:30N 43°24' E 004°60'0 0.0
2016-Dec-02 22:33N 43°24' E 004°60'1 1.2
2016-Dec-02 21:33N 43°24' E 004°58'0 0.0
2016-Dec-02 20:33N 43°24' E 004°58'0 0.0
2016-Dec-02 19:33N 43°24' E 004°58'0 0.0
2016-Dec-02 18:33N 43°24' E 004°58'0 0.0
2016-Dec-02 17:33N 43°24' E 004°58'0 0.0
2016-Dec-02 16:33N 43°24' E 004°58'0 0.0
2016-Dec-02 15:33N 43°24' E 004°58'0 0.4
2016-Dec-02 14:33N 43°23' E 004°58'9 8.6
2016-Dec-02 13:33N 43°15' E 005°01'1211.7
2016-Dec-02 12:33N 43°04' E 005°06'18011.3
2016-Dec-01 20:31N 43°12' E 009°13'1010.8
2016-Dec-01 19:33N 43°11' E 009°27'2 0.0
2016-Nov-29 23:11N 43°09' E 009°27'5 7.7
2016-Nov-29 22:33N 43°13' E 009°23'8 7.8
2016-Nov-29 21:33N 43°12' E 009°12'184 6.5
2016-Nov-28 17:29N 43°13' E 005°01'1111.9
2016-Nov-28 16:34N 43°24' E 004°55'2 2.3
2016-Nov-28 15:33N 43°26' E 004°54'0 0.0
2016-Nov-28 14:30N 43°26' E 004°54'0 0.0
2016-Nov-28 13:30N 43°26' E 004°54'0 0.0
2016-Nov-28 11:18N 43°26' E 004°54'0 0.0
2016-Nov-28 09:30N 43°26' E 004°54'0 0.0
2016-Nov-28 06:24N 43°26' E 004°54'0 0.0
2016-Nov-28 05:30N 43°26' E 004°54'0 0.0
2016-Nov-28 04:33N 43°26' E 004°54'0 0.0
2016-Nov-28 03:33N 43°26' E 004°54'0 0.0
2016-Nov-28 02:33N 43°26' E 004°54'0 0.0
2016-Nov-28 01:33N 43°26' E 004°54'0 0.0
2016-Nov-28 00:33N 43°26' E 004°54'0 0.0
2016-Nov-27 23:33N 43°26' E 004°54'0 0.0
2016-Nov-27 22:33N 43°26' E 004°54'1 1.3
2016-Nov-27 21:32N 43°25' E 004°55'0 0.0
2016-Nov-27 20:32N 43°25' E 004°55'0 0.0
2016-Nov-27 19:32N 43°25' E 004°55'0 0.0
2016-Nov-27 18:26N 43°25' E 004°55'0 0.0
2016-Nov-27 17:32N 43°25' E 004°55'0 0.0
2016-Nov-27 16:32N 43°25' E 004°55'0 0.0
2016-Nov-27 15:32N 43°25' E 004°55'0 0.0
2016-Nov-27 14:32N 43°25' E 004°55'0 0.0
2016-Nov-27 13:32N 43°25' E 004°55'0 0.0
2016-Nov-27 12:32N 43°25' E 004°55'0 0.0
2016-Nov-27 11:32N 43°25' E 004°55'0 0.0
2016-Nov-27 10:32N 43°25' E 004°55'0 0.0
2016-Nov-27 09:32N 43°25' E 004°55'0 0.0
2016-Nov-27 08:32N 43°25' E 004°55'0 0.0
2016-Nov-27 07:32N 43°25' E 004°55'0 0.1
2016-Nov-27 06:17N 43°25' E 004°55'0 0.1
2016-Nov-27 05:29N 43°25' E 004°55'0 0.0
2016-Nov-27 04:32N 43°25' E 004°55'0 0.0
2016-Nov-27 03:32N 43°25' E 004°55'0 0.1
2016-Nov-27 02:32N 43°25' E 004°55'0 0.0
2016-Nov-27 01:32N 43°25' E 004°55'0 0.0
2016-Nov-27 00:32N 43°25' E 004°55'0 0.0
2016-Nov-26 23:32N 43°25' E 004°55'0 0.0
2016-Nov-26 22:33N 43°25' E 004°55'0 0.0
2016-Nov-26 21:34N 43°25' E 004°55'6 6.0
2016-Nov-26 20:33N 43°20' E 004°59'  
Track history (hours):
 
Tides and Currents Weather Stations Pressure Air Temp Water Temp Dewpoint Dewpoint Depression Visibility Wind Speed Wind Dir Waves Ship Positions

St Solene

Last reported at 2016-Dec-05 18:18 UTC. Time now 2016-Dec-05 20:40 UTC.
Position N 43°01' E 003°48'.

Length 104 m; draft 6.5 m.

Type: Tanker. MMSI: 226302000.

Date/timePositionNaut miles runAvg speedWind from/ knotsBaromVisibWave heightAir tempDewpointWater temp
2016-Dec-05 18:18N 43°01' E 003°48'19 0.6
2016-Dec-04 08:25N 43°04' E 004°13'2211.2
2016-Dec-04 06:26N 43°06' E 004°43'16 7.9
2016-Dec-04 04:26N 43°17' E 004°59'7 7.2
2016-Dec-04 03:32N 43°24' E 004°60'0 0.0
2016-Dec-04 02:32N 43°24' E 004°60'0 0.0
2016-Dec-04 01:32N 43°24' E 004°60'0 0.0
2016-Dec-04 00:28N 43°24' E 004°60'0 0.0
2016-Dec-03 23:31N 43°24' E 004°60'0 0.0
2016-Dec-03 22:28N 43°24' E 004°60'0 0.0
2016-Dec-03 21:32N 43°24' E 004°60'0 0.0
2016-Dec-03 20:32N 43°24' E 004°60'0 0.0
2016-Dec-03 19:31N 43°24' E 004°60'0 0.0
2016-Dec-03 18:32N 43°24' E 004°60'0 0.0
2016-Dec-03 17:32N 43°24' E 004°60'0 0.0
2016-Dec-03 16:32N 43°24' E 004°60'0 0.0
2016-Dec-03 15:32N 43°24' E 004°60'0 0.0
2016-Dec-03 14:32N 43°24' E 004°60'0 0.0
2016-Dec-03 13:32N 43°24' E 004°60'0 0.0
2016-Dec-03 12:32N 43°24' E 004°60'0 0.0
2016-Dec-03 11:32N 43°24' E 004°60'0 0.0
2016-Dec-03 10:32N 43°24' E 004°60'0 0.0
2016-Dec-03 09:32N 43°24' E 004°60'0 0.0
2016-Dec-03 08:33N 43°24' E 004°60'0 0.0
2016-Dec-03 07:33N 43°24' E 004°60'0 0.0
2016-Dec-03 06:33N 43°24' E 004°60'0 0.0
2016-Dec-03 05:30N 43°24' E 004°60'0 0.0
2016-Dec-03 04:33N 43°24' E 004°60'0 0.0
2016-Dec-03 03:33N 43°24' E 004°60'0 0.0
2016-Dec-03 02:33N 43°24' E 004°60'0 0.0
2016-Dec-03 01:33N 43°24' E 004°60'0 0.0
2016-Dec-03 00:33N 43°24' E 004°60'0 0.0
2016-Dec-02 23:30N 43°24' E 004°60'0 0.0
2016-Dec-02 22:33N 43°24' E 004°60'1 1.2
2016-Dec-02 21:33N 43°24' E 004°58'0 0.0
2016-Dec-02 20:33N 43°24' E 004°58'0 0.0
2016-Dec-02 19:33N 43°24' E 004°58'0 0.0
2016-Dec-02 18:33N 43°24' E 004°58'0 0.0
2016-Dec-02 17:33N 43°24' E 004°58'0 0.0
2016-Dec-02 16:33N 43°24' E 004°58'0 0.0
2016-Dec-02 15:33N 43°24' E 004°58'0 0.4
2016-Dec-02 14:33N 43°23' E 004°58'9 8.6
2016-Dec-02 13:33N 43°15' E 005°01'1211.7
2016-Dec-02 12:33N 43°04' E 005°06'18011.3
2016-Dec-01 20:31N 43°12' E 009°13'1010.8
2016-Dec-01 19:33N 43°11' E 009°27'2 0.0
2016-Nov-29 23:11N 43°09' E 009°27'5 7.7
2016-Nov-29 22:33N 43°13' E 009°23'8 7.8
2016-Nov-29 21:33N 43°12' E 009°12'184 6.5
2016-Nov-28 17:29N 43°13' E 005°01'1111.9
2016-Nov-28 16:34N 43°24' E 004°55'2 2.3
2016-Nov-28 15:33N 43°26' E 004°54'0 0.0
2016-Nov-28 14:30N 43°26' E 004°54'0 0.0
2016-Nov-28 13:30N 43°26' E 004°54'0 0.0
2016-Nov-28 11:18N 43°26' E 004°54'0 0.0
2016-Nov-28 09:30N 43°26' E 004°54'0 0.0
2016-Nov-28 06:24N 43°26' E 004°54'0 0.0
2016-Nov-28 05:30N 43°26' E 004°54'0 0.0
2016-Nov-28 04:33N 43°26' E 004°54'0 0.0
2016-Nov-28 03:33N 43°26' E 004°54'0 0.0
2016-Nov-28 02:33N 43°26' E 004°54'0 0.0
2016-Nov-28 01:33N 43°26' E 004°54'0 0.0
2016-Nov-28 00:33N 43°26' E 004°54'0 0.0
2016-Nov-27 23:33N 43°26' E 004°54'0 0.0
2016-Nov-27 22:33N 43°26' E 004°54'1 1.3
2016-Nov-27 21:32N 43°25' E 004°55'0 0.0
2016-Nov-27 20:32N 43°25' E 004°55'0 0.0
2016-Nov-27 19:32N 43°25' E 004°55'0 0.0
2016-Nov-27 18:26N 43°25' E 004°55'0 0.0
2016-Nov-27 17:32N 43°25' E 004°55'0 0.0
2016-Nov-27 16:32N 43°25' E 004°55'0 0.0
2016-Nov-27 15:32N 43°25' E 004°55'0 0.0
2016-Nov-27 14:32N 43°25' E 004°55'0 0.0
2016-Nov-27 13:32N 43°25' E 004°55'0 0.0
2016-Nov-27 12:32N 43°25' E 004°55'0 0.0
2016-Nov-27 11:32N 43°25' E 004°55'0 0.0
2016-Nov-27 10:32N 43°25' E 004°55'0 0.0
2016-Nov-27 09:32N 43°25' E 004°55'0 0.0
2016-Nov-27 08:32N 43°25' E 004°55'0 0.0
2016-Nov-27 07:32N 43°25' E 004°55'0 0.1
2016-Nov-27 06:17N 43°25' E 004°55'0 0.1
2016-Nov-27 05:29N 43°25' E 004°55'0 0.0
2016-Nov-27 04:32N 43°25' E 004°55'0 0.0
2016-Nov-27 03:32N 43°25' E 004°55'0 0.1
2016-Nov-27 02:32N 43°25' E 004°55'0 0.0
2016-Nov-27 01:32N 43°25' E 004°55'0 0.0
2016-Nov-27 00:32N 43°25' E 004°55'0 0.0
2016-Nov-26 23:32N 43°25' E 004°55'0 0.0
2016-Nov-26 22:33N 43°25' E 004°55'0 0.0
2016-Nov-26 21:34N 43°25' E 004°55'6 6.0
2016-Nov-26 20:33N 43°20' E 004°59'  

Dump ship's entire track history